createdAt,value
2022-09-13T00:16:47.000Z,94.0
2022-09-13T00:46:51.000Z,94.0
2022-09-13T01:16:53.000Z,94.0
2022-09-13T01:46:57.000Z,95.0
2022-09-13T02:16:58.000Z,94.0
2022-09-13T02:47:07.000Z,95.0
2022-09-13T03:17:12.384Z,94
2022-09-13T03:47:13.000Z,95.0
2022-09-13T04:17:20.000Z,95.0
2022-09-13T04:47:30.000Z,96.0
2022-09-13T05:17:34.756Z,96
2022-09-13T05:47:39.000Z,96.0
2022-09-13T06:17:44.784Z,97
2022-09-13T06:47:46.000Z,97.0
2022-09-13T07:17:52.006Z,97
2022-09-13T07:47:54.000Z,93.0
2022-09-13T08:17:56.000Z,82.0
2022-09-13T08:48:04.891Z,78
2022-09-13T09:18:07.000Z,77.0
2022-09-13T09:48:08.041Z,69
2022-09-13T10:18:15.000Z,54.0
2022-09-13T10:48:17.902Z,58
2022-09-13T11:18:19.000Z,45.0
2022-09-13T11:48:20.477Z,60
2022-09-13T12:18:31.455Z,59
2022-09-13T12:48:32.610Z,40
2022-09-13T13:18:32.000Z,38.0
2022-09-13T13:48:37.578Z,38
2022-09-13T14:18:38.000Z,46.0
2022-09-13T14:48:42.000Z,62.0
2022-09-13T15:18:44.000Z,56.0
2022-09-13T15:48:54.000Z,60.0
2022-09-13T16:18:55.498Z,67
2022-09-13T16:49:05.673Z,70
2022-09-13T17:19:16.708Z,73
2022-09-13T17:49:27.621Z,77
2022-09-13T18:19:36.647Z,79
2022-09-13T18:49:51.845Z,80
2022-09-13T19:19:55.579Z,82
2022-09-13T19:49:55.673Z,83
2022-09-13T20:20:05.676Z,84
2022-09-13T20:50:06.708Z,85
2022-09-13T21:20:11.682Z,85
2022-09-13T21:50:14.765Z,87
2022-09-13T22:20:18.818Z,87
2022-09-13T22:50:23.908Z,88
2022-09-13T23:20:24.979Z,88
2022-09-13T23:50:25.835Z,89
